Time;durP1;ratioP1;P1;durP2;ratioP2;P2;SDS_P1;SDS_P2;PMS_P1;PMS_P2;Temp;Humidity;BMP_temperature;BMP_pressure;BME280_temperature;BME280_humidity;BME280_pressure;Samples;Min_cycle;Max_cycle;Signal;HPM_P1;HPM_P2
2022/01/31 00:02:19;;;;;;;20.33;19.42;;;9.10;79.20;;;;;;4954908;28;20024;-90
2022/01/31 00:04:45;;;;;;;21.60;20.40;;;9.10;79.20;;;;;;4939318;29;20051;-90
2022/01/31 00:07:11;;;;;;;19.83;18.92;;;9.10;79.20;;;;;;4956232;29;20031;-90
2022/01/31 00:09:40;;;;;;;19.25;18.35;;;9.10;79.20;;;;;;4936610;29;20410;-90
2022/01/31 00:12:10;;;;;;;19.52;18.63;;;9.10;79.30;;;;;;4953907;29;20478;-91
2022/01/31 00:17:02;;;;;;;19.73;18.83;;;9.00;79.20;;;;;;4955948;28;20047;-91
2022/01/31 00:19:29;;;;;;;19.60;18.70;;;9.00;79.30;;;;;;4957073;28;20042;-90
2022/01/31 00:21:55;;;;;;;20.35;19.35;;;9.00;79.30;;;;;;4938585;29;20035;-90
2022/01/31 00:24:21;;;;;;;19.08;18.17;;;9.00;79.20;;;;;;4953974;29;20402;-91
2022/01/31 00:26:47;;;;;;;20.48;19.45;;;9.00;79.20;;;;;;4926958;29;20047;-90
2022/01/31 00:29:13;;;;;;;19.10;18.17;;;9.00;79.20;;;;;;4937850;29;20032;-91
2022/01/31 00:31:39;;;;;;;20.88;19.48;;;9.00;79.20;;;;;;4936786;29;20035;-90
2022/01/31 00:34:05;;;;;;;19.27;18.38;;;9.00;79.30;;;;;;4933298;29;20036;-90
2022/01/31 00:36:31;;;;;;;19.85;18.85;;;9.00;79.30;;;;;;4959551;28;20042;-91
2022/01/31 00:38:58;;;;;;;19.05;18.15;;;9.00;79.40;;;;;;4926882;29;20050;-91
2022/01/31 00:41:24;;;;;;;19.70;18.58;;;9.00;79.40;;;;;;4942060;29;20032;-91
2022/01/31 00:44:15;;;;;;;19.30;18.40;;;9.00;79.40;;;;;;4954571;28;20525;-91
2022/01/31 00:46:46;;;;;;;19.92;18.73;;;9.00;79.40;;;;;;4953994;28;20044;-91
2022/01/31 00:49:23;;;;;;;;;;;9.00;79.40;;;;;;4955790;29;20035;-91
2022/01/31 00:51:49;;;;;;;18.95;17.95;;;9.00;79.40;;;;;;4955291;29;20305;-91
2022/01/31 00:54:15;;;;;;;19.60;18.42;;;9.00;79.20;;;;;;4955162;29;20050;-91
2022/01/31 00:56:41;;;;;;;19.05;18.05;;;9.10;79.30;;;;;;4940877;29;20495;-91
2022/01/31 00:59:07;;;;;;;19.02;18.02;;;9.10;79.40;;;;;;4955813;29;20050;-90
2022/01/31 01:01:33;;;;;;;18.13;17.27;;;9.10;79.50;;;;;;4954733;28;20044;-91
2022/01/31 01:03:59;;;;;;;18.75;17.85;;;9.10;79.40;;;;;;4954961;29;20023;-91
2022/01/31 01:06:26;;;;;;;18.25;17.45;;;9.10;79.40;;;;;;4954483;29;20374;-90
2022/01/31 01:08:52;;;;;;;19.20;18.20;;;9.10;79.40;;;;;;4954582;29;20039;-90
2022/01/31 01:11:18;;;;;;;18.33;17.42;;;9.10;79.50;;;;;;4940340;29;20511;-90
2022/01/31 01:13:44;;;;;;;18.70;17.80;;;9.10;79.50;;;;;;4954479;29;20039;-90
2022/01/31 01:16:10;;;;;;;18.70;17.80;;;9.10;79.60;;;;;;4953418;28;20402;-91
2022/01/31 01:18:36;;;;;;;18.45;17.63;;;9.00;79.60;;;;;;4970909;28;20023;-90
2022/01/31 01:21:02;;;;;;;18.60;17.73;;;9.10;79.70;;;;;;4951218;29;20035;-91
2022/01/31 01:23:28;;;;;;;19.00;17.90;;;9.10;79.70;;;;;;4953976;29;20039;-91
2022/01/31 01:25:54;;;;;;;18.50;17.60;;;9.00;79.70;;;;;;4942251;29;20034;-90
2022/01/31 01:28:22;;;;;;;17.33;16.52;;;9.10;79.80;;;;;;4951118;29;20378;-91
2022/01/31 01:30:49;;;;;;;18.05;17.15;;;9.10;79.90;;;;;;4953683;28;20318;-90
2022/01/31 01:33:21;;;;;;;17.67;16.88;;;9.10;79.90;;;;;;4955003;28;20766;-90
2022/01/31 01:35:49;;;;;;;17.35;16.55;;;9.10;79.90;;;;;;4954065;28;20055;-91
2022/01/31 01:38:17;;;;;;;18.15;17.25;;;9.10;79.90;;;;;;4939538;29;20458;-90
2022/01/31 01:40:44;;;;;;;18.15;17.33;;;9.10;79.90;;;;;;4942611;29;20055;-90
2022/01/31 01:43:11;;;;;;;18.17;17.08;;;9.20;80.00;;;;;;4947993;29;20367;-91
2022/01/31 01:45:37;;;;;;;17.65;16.85;;;9.10;79.90;;;;;;4953103;28;20411;-91
2022/01/31 01:48:07;;;;;;;17.83;17.02;;;9.20;80.00;;;;;;4954042;29;20034;-90
2022/01/31 01:50:34;;;;;;;17.73;16.83;;;9.10;80.00;;;;;;4953986;28;20050;-90
2022/01/31 01:53:00;;;;;;;17.45;16.65;;;9.10;80.00;;;;;;4941270;29;20042;-90
2022/01/31 01:55:27;;;;;;;17.48;16.67;;;9.20;80.10;;;;;;4952696;28;20051;-91
2022/01/31 01:57:53;;;;;;;17.98;17.17;;;9.20;80.10;;;;;;4958043;28;20049;-90
2022/01/31 02:00:25;;;;;;;19.17;17.90;;;9.20;80.10;;;;;;4956454;28;20035;-90
2022/01/31 02:02:51;;;;;;;17.60;16.80;;;9.20;80.10;;;;;;4953222;29;20029;-90
2022/01/31 02:05:18;;;;;;;17.67;16.88;;;9.20;80.10;;;;;;4952676;29;20039;-90
2022/01/31 02:07:44;;;;;;;18.05;16.83;;;9.20;80.10;;;;;;4953967;29;20100;-91
2022/01/31 02:10:10;;;;;;;17.90;17.08;;;9.20;80.10;;;;;;4953151;28;20043;-90
2022/01/31 02:12:47;;;;;;;17.20;16.40;;;9.20;80.10;;;;;;4952725;29;20019;-91
2022/01/31 02:15:14;;;;;;;18.77;17.88;;;9.20;80.20;;;;;;4968469;28;20410;-91
2022/01/31 02:17:40;;;;;;;17.48;16.67;;;9.20;80.20;;;;;;4955652;28;20023;-90
2022/01/31 02:20:08;;;;;;;17.83;17.02;;;9.20;80.20;;;;;;4954243;28;20074;-91
2022/01/31 02:22:35;;;;;;;17.60;16.80;;;9.30;80.20;;;;;;4953583;28;20034;-88
2022/01/31 02:25:01;;;;;;;18.55;17.65;;;9.30;80.30;;;;;;4951576;29;20023;-90
2022/01/31 02:27:29;;;;;;;17.55;16.65;;;9.30;80.30;;;;;;4953754;29;20038;-91
2022/01/31 02:29:55;;;;;;;17.70;16.67;;;9.20;80.30;;;;;;4938864;29;20031;-90
2022/01/31 02:32:22;;;;;;;17.73;16.92;;;9.20;80.30;;;;;;4952866;28;20042;-90
2022/01/31 02:34:49;;;;;;;17.85;16.95;;;9.20;80.30;;;;;;4951507;28;20062;-90
2022/01/31 02:37:16;;;;;;;17.60;16.80;;;9.30;80.40;;;;;;4948779;29;20038;-90
2022/01/31 02:39:42;;;;;;;18.10;17.20;;;9.30;80.40;;;;;;4952222;29;20031;-91
2022/01/31 02:42:08;;;;;;;17.73;16.92;;;9.30;80.40;;;;;;4953587;29;20050;-91
2022/01/31 02:44:38;;;;;;;18.20;17.30;;;9.30;80.40;;;;;;4953891;29;20050;-89
2022/01/31 02:47:09;;;;;;;17.10;16.30;;;9.30;80.40;;;;;;4953623;28;20032;-90
2022/01/31 02:49:45;;;;;;;18.10;17.30;;;9.30;80.40;;;;;;4952890;28;20486;-90
2022/01/31 02:52:13;;;;;;;18.23;17.08;;;9.30;80.40;;;;;;4952839;28;20116;-90
2022/01/31 02:54:39;;;;;;;17.40;16.60;;;9.40;80.50;;;;;;4949605;29;20031;-90
2022/01/31 02:57:05;;;;;;;17.95;17.15;;;9.40;80.50;;;;;;4968327;28;20046;-91
2022/01/31 02:59:31;;;;;;;17.83;16.92;;;9.40;80.60;;;;;;4953504;29;20054;-91
2022/01/31 03:01:58;;;;;;;17.65;16.85;;;9.40;80.60;;;;;;4965483;28;20035;-90
2022/01/31 03:04:24;;;;;;;17.67;16.88;;;9.40;80.60;;;;;;4947193;29;20046;-90
2022/01/31 03:06:53;;;;;;;17.60;16.80;;;9.40;80.60;;;;;;4947435;29;20035;-90
2022/01/31 03:09:19;;;;;;;17.85;17.05;;;9.40;80.60;;;;;;4949220;28;20082;-91
2022/01/31 03:11:45;;;;;;;18.45;17.30;;;9.40;80.70;;;;;;4946611;28;20051;-90
2022/01/31 03:14:11;;;;;;;17.75;16.95;;;9.40;80.70;;;;;;4954829;29;20031;-90
2022/01/31 03:16:41;;;;;;;17.20;16.40;;;9.40;80.80;;;;;;4951996;28;20047;-91
2022/01/31 03:19:07;;;;;;;17.92;17.13;;;9.40;80.80;;;;;;4952475;28;20487;-89
2022/01/31 03:21:34;;;;;;;17.23;16.30;;;9.40;80.80;;;;;;4950947;28;20088;-91
2022/01/31 03:24:00;;;;;;;17.45;16.65;;;9.40;80.80;;;;;;4952591;29;20040;-90
2022/01/31 03:26:26;;;;;;;18.42;17.48;;;9.40;80.80;;;;;;4945553;29;20031;-91
2022/01/31 03:28:53;;;;;;;17.63;16.83;;;9.40;80.80;;;;;;4952959;29;20039;-90
2022/01/31 03:31:21;;;;;;;18.25;17.35;;;9.40;80.80;;;;;;4953518;28;20422;-90
2022/01/31 03:33:50;;;;;;;17.48;16.67;;;9.40;80.90;;;;;;4948441;29;20034;-90
2022/01/31 03:36:16;;;;;;;18.10;17.20;;;9.40;80.90;;;;;;4951052;29;20047;-90
2022/01/31 03:38:42;;;;;;;17.60;16.75;;;9.40;81.00;;;;;;4940760;29;20023;-91
2022/01/31 03:41:09;;;;;;;16.98;16.17;;;9.40;80.90;;;;;;4955625;29;20035;-90
2022/01/31 03:43:35;;;;;;;17.90;17.02;;;9.40;80.90;;;;;;4956630;29;20046;-90
2022/01/31 03:46:01;;;;;;;17.63;16.83;;;9.40;80.90;;;;;;4951567;28;20042;-90
2022/01/31 03:48:28;;;;;;;17.60;16.80;;;9.40;80.90;;;;;;4954185;28;20398;-90
2022/01/31 03:50:55;;;;;;;17.55;16.75;;;9.50;81.00;;;;;;4941803;28;20062;-90
2022/01/31 03:53:22;;;;;;;16.77;15.98;;;9.50;81.00;;;;;;4957163;29;20039;-90
2022/01/31 03:55:48;;;;;;;17.90;17.00;;;9.50;81.00;;;;;;4956389;29;20243;-90
2022/01/31 03:58:14;;;;;;;17.67;16.88;;;9.50;81.00;;;;;;4956284;29;20031;-90
2022/01/31 04:00:40;;;;;;;17.40;16.60;;;9.50;81.00;;;;;;4953665;28;20042;-91
2022/01/31 04:03:06;;;;;;;17.40;16.60;;;9.50;81.10;;;;;;4941992;29;20035;-90
2022/01/31 04:05:32;;;;;;;18.00;17.20;;;9.50;81.10;;;;;;4954753;29;20471;-90
2022/01/31 04:07:58;;;;;;;18.02;17.13;;;9.50;81.00;;;;;;4955856;28;20054;-90
2022/01/31 04:10:26;;;;;;;17.95;16.85;;;9.60;81.10;;;;;;4955868;29;20039;-92
2022/01/31 04:12:52;;;;;;;17.55;16.75;;;9.50;81.10;;;;;;4955745;28;20058;-91
2022/01/31 04:15:18;;;;;;;17.45;16.65;;;9.50;81.10;;;;;;4955245;28;20039;-90
2022/01/31 04:17:45;;;;;;;17.73;16.92;;;9.60;81.10;;;;;;4956256;28;20375;-90
2022/01/31 04:20:11;;;;;;;18.17;17.27;;;9.60;81.10;;;;;;4948295;29;20050;-90
2022/01/31 04:22:44;;;;;;;17.75;16.95;;;9.60;81.90;;;;;;4952993;29;20433;-90
2022/01/31 04:25:27;;;;;;;17.88;16.98;;;9.60;81.10;;;;;;4955804;28;20043;-90
2022/01/31 04:28:01;;;;;;;17.55;16.75;;;9.60;81.10;;;;;;4955521;28;20047;-90
2022/01/31 04:30:31;;;;;;;17.48;16.67;;;9.60;81.10;;;;;;4952596;28;20043;-91
2022/01/31 04:32:57;;;;;;;17.67;16.77;;;9.60;81.10;;;;;;4955673;28;20478;-90
2022/01/31 04:35:23;;;;;;;17.95;17.05;;;9.70;81.30;;;;;;4955641;29;20043;-90
2022/01/31 04:37:49;;;;;;;17.58;16.77;;;9.70;81.30;;;;;;4955339;29;20040;-90
2022/01/31 04:40:15;;;;;;;16.98;16.17;;;9.70;81.30;;;;;;4955209;29;20035;-91
2022/01/31 04:42:44;;;;;;;17.77;16.98;;;9.70;81.30;;;;;;4955595;29;20046;-90
2022/01/31 04:45:10;;;;;;;17.38;16.58;;;9.70;81.20;;;;;;4954808;28;20043;-90
2022/01/31 04:47:36;;;;;;;17.42;16.63;;;9.70;81.30;;;;;;4940592;29;20042;-84
2022/01/31 04:50:04;;;;;;;17.60;16.80;;;9.70;81.30;;;;;;4944961;29;20035;-83
2022/01/31 04:52:30;;;;;;;17.55;16.75;;;9.80;81.40;;;;;;4954975;28;20047;-83
2022/01/31 04:54:57;;;;;;;17.98;17.15;;;9.70;81.30;;;;;;4966753;28;20084;-84
2022/01/31 04:57:23;;;;;;;18.08;17.27;;;9.70;81.30;;;;;;4947997;29;20043;-84
2022/01/31 04:59:50;;;;;;;17.30;16.50;;;9.70;81.30;;;;;;4951413;29;20040;-83
2022/01/31 05:02:16;;;;;;;17.42;16.63;;;9.70;81.30;;;;;;4967691;28;20036;-84
2022/01/31 05:04:42;;;;;;;17.10;16.30;;;9.70;81.50;;;;;;4950840;29;20027;-84
2022/01/31 05:07:08;;;;;;;17.35;16.55;;;9.70;81.40;;;;;;4948670;29;20042;-84
2022/01/31 05:09:35;;;;;;;17.63;16.83;;;9.70;81.50;;;;;;4950709;29;20033;-84
2022/01/31 05:12:01;;;;;;;17.08;16.27;;;9.80;81.50;;;;;;4950858;29;20035;-82
2022/01/31 05:14:27;;;;;;;17.48;16.67;;;9.80;81.60;;;;;;4951522;29;20039;-83
2022/01/31 05:16:53;;;;;;;17.45;16.65;;;9.80;81.60;;;;;;4952063;28;20402;-90
2022/01/31 05:19:19;;;;;;;16.98;16.17;;;9.80;81.60;;;;;;4954449;28;20035;-89
2022/01/31 05:21:45;;;;;;;18.25;17.25;;;9.80;81.60;;;;;;4952239;29;20393;-90
2022/01/31 05:24:11;;;;;;;17.42;16.63;;;9.80;81.60;;;;;;4951258;29;20020;-88
2022/01/31 05:26:38;;;;;;;17.23;16.42;;;9.80;81.60;;;;;;4953009;29;20031;-89
2022/01/31 05:29:04;;;;;;;17.00;16.20;;;9.80;81.50;;;;;;4951938;29;20031;-88
2022/01/31 05:31:30;;;;;;;17.35;16.55;;;9.80;81.60;;;;;;4951611;28;20642;-89
2022/01/31 05:33:56;;;;;;;17.17;16.38;;;9.80;81.50;;;;;;4952599;28;20027;-89
2022/01/31 05:36:23;;;;;;;17.35;16.55;;;9.80;81.60;;;;;;4955529;28;20039;-89
2022/01/31 05:38:49;;;;;;;17.05;16.25;;;9.80;81.60;;;;;;4951709;28;20043;-88
2022/01/31 05:41:20;;;;;;;17.60;16.80;;;9.80;81.70;;;;;;4952385;28;20070;-88
2022/01/31 05:43:46;;;;;;;17.00;16.20;;;9.80;81.70;;;;;;4949529;28;20047;-89
2022/01/31 05:46:12;;;;;;;17.67;16.88;;;9.80;81.80;;;;;;4949199;28;20116;-89
2022/01/31 05:48:39;;;;;;;17.60;16.80;;;9.80;81.80;;;;;;4948820;29;20054;-89
2022/01/31 05:51:05;;;;;;;17.83;16.85;;;9.80;81.80;;;;;;4951106;29;20487;-90
2022/01/31 05:53:31;;;;;;;17.88;16.98;;;9.90;81.80;;;;;;4951672;29;20039;-89
2022/01/31 05:55:58;;;;;;;17.63;16.83;;;9.80;81.80;;;;;;4965997;28;20055;-89
2022/01/31 05:58:24;;;;;;;18.67;17.77;;;9.80;81.80;;;;;;4948156;29;20474;-88
2022/01/31 06:00:50;;;;;;;17.35;16.55;;;9.80;81.80;;;;;;4950151;28;20046;-89
2022/01/31 06:03:16;;;;;;;17.50;16.70;;;9.80;81.80;;;;;;4952932;28;20054;-90
2022/01/31 06:05:42;;;;;;;18.08;17.27;;;9.90;81.90;;;;;;4950528;29;20027;-90
2022/01/31 06:08:08;;;;;;;17.70;16.90;;;9.90;81.90;;;;;;4958315;28;20462;-90
2022/01/31 06:10:41;;;;;;;18.30;17.50;;;9.90;82.00;;;;;;4952363;29;20039;-89
2022/01/31 06:13:07;;;;;;;18.10;17.30;;;9.90;82.00;;;;;;4948582;28;20051;-90
2022/01/31 06:15:33;;;;;;;19.05;18.15;;;9.90;82.00;;;;;;4953659;28;20031;-91
2022/01/31 06:17:59;;;;;;;17.63;16.83;;;9.90;82.70;;;;;;4956153;28;20035;-90
2022/01/31 06:20:26;;;;;;;18.23;17.42;;;9.90;82.00;;;;;;4954474;29;20413;-91
2022/01/31 06:22:53;;;;;;;17.27;16.48;;;9.90;82.00;;;;;;4952731;29;20039;-91
2022/01/31 06:25:19;;;;;;;17.65;16.75;;;10.00;82.10;;;;;;4952100;28;20518;-91
2022/01/31 06:27:46;;;;;;;18.30;17.50;;;10.00;82.00;;;;;;4953742;29;20027;-90
2022/01/31 06:30:12;;;;;;;18.15;17.35;;;10.00;82.00;;;;;;4947552;28;20409;-91
2022/01/31 06:32:38;;;;;;;18.27;17.45;;;10.00;82.00;;;;;;4953434;29;20035;-91
2022/01/31 06:35:05;;;;;;;19.23;18.23;;;10.00;82.00;;;;;;4953704;29;20035;-91
2022/01/31 06:37:31;;;;;;;19.17;18.17;;;10.00;82.00;;;;;;4951332;28;20379;-91
2022/01/31 06:39:57;;;;;;;18.92;18.00;;;10.00;82.00;;;;;;4952816;29;20031;-91
2022/01/31 06:42:23;;;;;;;19.42;18.30;;;10.00;82.00;;;;;;4953172;29;20043;-91
2022/01/31 06:44:49;;;;;;;17.27;16.48;;;10.00;82.00;;;;;;4952868;28;20059;-91
2022/01/31 06:47:15;;;;;;;18.00;17.17;;;10.00;82.10;;;;;;4953144;28;20508;-91
2022/01/31 06:49:41;;;;;;;18.30;17.50;;;10.00;82.20;;;;;;4953156;29;20039;-92
2022/01/31 06:52:07;;;;;;;18.15;17.35;;;9.90;82.20;;;;;;4952862;29;20512;-91
2022/01/31 06:54:34;;;;;;;19.13;18.10;;;10.00;82.20;;;;;;4953924;29;20027;-91
2022/01/31 06:57:01;;;;;;;17.95;17.05;;;9.90;82.20;;;;;;4952144;29;20051;-91
2022/01/31 06:59:27;;;;;;;18.00;17.20;;;9.90;82.20;;;;;;4954319;29;20024;-91
2022/01/31 07:01:53;;;;;;;18.42;17.58;;;9.90;82.30;;;;;;4951029;28;21588;-85
2022/01/31 07:04:19;;;;;;;19.25;18.35;;;9.90;82.30;;;;;;4951344;29;20031;-88
2022/01/31 07:06:45;;;;;;;18.77;17.88;;;9.90;82.30;;;;;;4951765;29;20027;-88
2022/01/31 07:09:12;;;;;;;18.85;17.83;;;9.80;82.30;;;;;;4964394;28;20034;-92
2022/01/31 07:11:40;;;;;;;18.10;17.30;;;9.80;82.30;;;;;;4955352;28;20058;-89
2022/01/31 07:14:24;;;;;;;19.27;18.38;;;9.80;82.40;;;;;;4952284;29;20054;-88
2022/01/31 07:16:50;;;;;;;18.70;17.77;;;9.80;82.40;;;;;;4951788;28;20421;-88
2022/01/31 07:19:17;;;;;;;17.77;16.98;;;9.80;82.50;;;;;;4953445;28;20482;-93
2022/01/31 07:21:49;;;;;;;18.50;17.65;;;9.70;82.40;;;;;;4950431;28;20046;-91
2022/01/31 07:26:45;;;;;;;17.98;17.17;;;9.70;82.40;;;;;;4953395;29;20038;-91
2022/01/31 07:29:11;;;;;;;18.27;17.48;;;9.60;82.40;;;;;;4970957;28;20027;-92
2022/01/31 07:31:38;;;;;;;18.75;17.85;;;9.60;82.50;;;;;;4951937;28;20036;-87
2022/01/31 07:34:04;;;;;;;18.77;17.88;;;9.60;82.50;;;;;;4949187;28;20035;-86
2022/01/31 07:36:30;;;;;;;18.20;17.40;;;9.50;82.50;;;;;;4950179;29;20096;-87
2022/01/31 07:38:56;;;;;;;20.67;19.67;;;9.50;82.40;;;;;;4950075;29;20039;-89
2022/01/31 07:41:23;;;;;;;18.80;17.90;;;9.50;82.40;;;;;;4934761;29;20039;-92
2022/01/31 07:43:49;;;;;;;18.42;17.63;;;9.50;82.40;;;;;;4950274;29;20062;-92
2022/01/31 07:46:15;;;;;;;18.42;17.52;;;9.50;82.40;;;;;;4949772;28;20050;-87
2022/01/31 07:48:41;;;;;;;18.10;17.30;;;9.50;82.40;;;;;;4949641;29;20042;-87
2022/01/31 07:51:11;;;;;;;18.10;17.30;;;9.50;82.40;;;;;;4948643;29;20407;-88
2022/01/31 07:53:38;;;;;;;18.58;17.67;;;9.40;82.40;;;;;;4951752;29;20047;-89
2022/01/31 07:56:08;;;;;;;19.45;18.55;;;9.50;82.40;;;;;;4936989;29;20050;-88
2022/01/31 07:58:37;;;;;;;19.33;18.42;;;9.50;82.30;;;;;;4935688;29;20402;-92
2022/01/31 08:01:04;;;;;;;19.42;18.52;;;9.40;82.30;;;;;;4952244;28;20047;-86
2022/01/31 08:03:31;;;;;;;18.83;17.92;;;9.40;82.30;;;;;;4954506;29;20386;-87
2022/01/31 08:05:57;;;;;;;17.98;17.17;;;9.40;82.30;;;;;;4952963;29;20031;-88
2022/01/31 08:08:24;;;;;;;17.13;16.33;;;9.40;83.10;;;;;;4956128;29;20023;-87
2022/01/31 08:10:51;;;;;;;17.70;16.90;;;9.40;82.30;;;;;;4952143;28;20043;-85
2022/01/31 08:13:17;;;;;;;17.95;17.15;;;9.40;82.30;;;;;;4952352;28;20482;-87
2022/01/31 08:16:01;;;;;;;18.50;17.67;;;9.40;82.30;;;;;;4951578;28;20034;-87
2022/01/31 08:18:28;;;;;;;18.27;17.48;;;9.40;82.30;;;;;;4957065;28;20398;-86
2022/01/31 08:20:54;;;;;;;18.33;17.52;;;9.40;82.20;;;;;;4954619;29;20486;-87
2022/01/31 08:23:20;;;;;;;17.73;16.92;;;9.40;82.20;;;;;;4955772;29;20031;-86
2022/01/31 08:25:50;;;;;;;18.63;17.73;;;9.40;82.10;;;;;;4950990;29;20031;-85
2022/01/31 08:28:17;;;;;;;17.90;17.10;;;9.40;82.00;;;;;;4948413;29;20390;-83
2022/01/31 08:33:32;;;;;;;18.23;17.42;;;9.50;81.90;;;;;;4954976;28;20028;-84
2022/01/31 08:36:02;;;;;;;17.95;17.15;;;9.50;82.00;;;;;;4945806;29;20039;-84
2022/01/31 08:38:29;;;;;;;18.20;17.40;;;9.50;81.80;;;;;;4955730;28;20181;-84
2022/01/31 08:40:55;;;;;;;17.73;16.92;;;9.50;81.80;;;;;;4952377;29;20054;-89
2022/01/31 08:43:22;;;;;;;18.90;17.80;;;9.50;81.80;;;;;;4966609;28;20453;-87
2022/01/31 08:45:49;;;;;;;18.23;17.42;;;9.50;81.80;;;;;;4967066;28;20035;-84
2022/01/31 08:48:15;;;;;;;18.30;17.33;;;9.50;81.60;;;;;;4944677;29;20032;-84
2022/01/31 08:50:41;;;;;;;18.08;17.27;;;9.60;81.60;;;;;;4953598;29;20051;-85
2022/01/31 08:53:07;;;;;;;18.60;17.70;;;9.60;81.60;;;;;;4941275;29;20036;-88
2022/01/31 08:55:35;;;;;;;18.70;17.83;;;9.70;81.50;;;;;;4951799;29;20488;-88
2022/01/31 08:58:01;;;;;;;17.98;17.17;;;9.70;81.50;;;;;;4953307;28;20048;-91
2022/01/31 09:00:34;;;;;;;20.85;19.30;;;9.80;81.40;;;;;;4944878;28;20031;-90
2022/01/31 09:05:39;;;;;;;20.08;19.08;;;10.00;81.20;;;;;;4960088;28;20030;-91
2022/01/31 09:08:05;;;;;;;20.17;19.25;;;10.00;81.00;;;;;;4955657;28;20054;-92
2022/01/31 09:10:32;;;;;;;20.25;19.35;;;10.10;81.00;;;;;;4967534;28;20497;-91
2022/01/31 09:12:58;;;;;;;1999.90;999.90;;;10.10;80.90;;;;;;4948125;29;20379;-89
2022/01/31 09:15:24;;;;;;;1999.90;999.90;;;10.20;80.80;;;;;;4931329;28;20036;-90
2022/01/31 09:17:50;;;;;;;1999.90;999.90;;;10.30;80.60;;;;;;4935803;29;20491;-88
2022/01/31 09:20:17;;;;;;;1999.90;999.90;;;10.70;80.00;;;;;;4969696;28;20036;-90
2022/01/31 09:22:43;;;;;;;1999.90;999.90;;;11.10;79.20;;;;;;4935120;29;20055;-92
2022/01/31 09:25:10;;;;;;;1999.90;999.90;;;11.40;78.30;;;;;;4936256;29;20054;-86
2022/01/31 09:27:36;;;;;;;1999.90;999.90;;;11.70;77.50;;;;;;4951137;29;20418;-84
2022/01/31 09:30:04;;;;;;;1999.90;999.90;;;11.90;76.70;;;;;;4948318;28;20039;-90
2022/01/31 09:32:30;;;;;;;1999.90;999.90;;;12.20;76.40;;;;;;4927789;29;20382;-85
2022/01/31 09:34:58;;;;;;;1999.90;999.90;;;12.30;75.80;;;;;;4950438;28;20082;-89
2022/01/31 09:37:24;;;;;;;1999.90;999.90;;;12.50;75.60;;;;;;4951257;29;20053;-89
2022/01/31 09:39:50;;;;;;;1999.90;999.90;;;12.70;75.40;;;;;;4952349;29;20043;-89
2022/01/31 09:42:27;;;;;;;1999.90;999.90;;;12.90;75.20;;;;;;4950137;29;20043;-89
2022/01/31 09:50:11;;;;;;;1999.90;999.90;;;13.20;75.00;;;;;;4954643;28;20040;-90
2022/01/31 09:52:37;;;;;;;1999.90;999.90;;;13.10;75.00;;;;;;4951115;28;20401;-88
2022/01/31 09:55:04;;;;;;;1999.90;999.90;;;13.00;75.30;;;;;;4956342;28;20027;-91
2022/01/31 09:57:30;;;;;;;1999.90;999.90;;;13.00;75.30;;;;;;4946335;28;20429;-90
2022/01/31 09:59:56;;;;;;;1999.90;999.90;;;13.00;75.30;;;;;;4951557;28;20031;-89
2022/01/31 10:02:22;;;;;;;1999.90;999.90;;;13.00;75.60;;;;;;4945772;28;20039;-88
2022/01/31 10:04:48;;;;;;;1999.90;999.90;;;13.10;75.60;;;;;;4946203;29;20042;-91
2022/01/31 10:07:15;;;;;;;1999.90;999.90;;;13.10;75.30;;;;;;4950835;29;20027;-89
2022/01/31 10:09:45;;;;;;;1999.90;999.90;;;13.10;75.30;;;;;;4952528;28;20051;-87
2022/01/31 10:17:38;;;;;;;1999.90;999.90;;;13.10;75.30;;;;;;4947752;28;20506;-87
2022/01/31 10:20:08;;;;;;;1999.90;999.90;;;13.20;75.20;;;;;;4944550;28;20034;-84
2022/01/31 10:22:36;;;;;;;1999.90;999.90;;;13.20;75.00;;;;;;4944612;28;20473;-90
2022/01/31 10:25:07;;;;;;;1999.90;999.90;;;13.20;74.90;;;;;;4948999;29;20023;-90
2022/01/31 10:27:34;;;;;;;1999.90;999.90;;;13.10;74.80;;;;;;4949637;29;20027;-88
2022/01/31 10:30:20;;;;;;;1999.90;999.90;;;13.00;75.10;;;;;;4954910;28;20031;-92
2022/01/31 10:32:47;;;;;;;1999.90;999.90;;;12.90;75.50;;;;;;4931565;29;20486;-90
2022/01/31 10:35:18;;;;;;;1999.90;999.90;;;12.90;75.70;;;;;;4934380;29;20074;-92
2022/01/31 10:37:45;;;;;;;1999.90;999.90;;;12.80;75.70;;;;;;4935978;29;20059;-89
2022/01/31 10:53:51;;;;;;;1999.90;999.90;;;12.70;75.70;;;;;;4953917;28;20513;-88
2022/01/31 10:56:17;;;;;;;;;;;12.50;75.60;;;;;;4951062;28;20054;-87
2022/01/31 10:59:06;;;;;;;1999.90;999.90;;;12.30;76.10;;;;;;4948985;29;20297;-86
2022/01/31 11:01:32;;;;;;;1999.90;999.90;;;12.20;76.30;;;;;;4949858;29;20047;-86
2022/01/31 11:04:03;;;;;;;1999.90;999.90;;;12.20;76.40;;;;;;4951291;29;20027;-86
2022/01/31 11:06:30;;;;;;;1999.90;999.90;;;12.10;76.50;;;;;;4950286;29;20031;-87
2022/01/31 11:09:04;;;;;;;1999.90;999.90;;;12.20;76.30;;;;;;4935300;28;20380;-86
2022/01/31 11:11:33;;;;;;;1999.90;999.90;;;12.20;76.10;;;;;;4952809;29;20032;-85
2022/01/31 11:13:59;;;;;;;1999.90;999.90;;;12.20;76.10;;;;;;4947677;29;20042;-85
2022/01/31 11:16:25;;;;;;;1999.90;999.90;;;12.30;76.00;;;;;;4958682;28;20039;-86
2022/01/31 11:18:52;;;;;;;1999.90;999.90;;;12.20;76.00;;;;;;4952881;28;20410;-90
2022/01/31 11:21:19;;;;;;;1999.90;999.90;;;12.20;76.00;;;;;;4951843;29;20058;-87
2022/01/31 11:23:50;;;;;;;1999.90;999.90;;;12.10;75.90;;;;;;4939398;29;20047;-87
2022/01/31 11:26:17;;;;;;;1999.90;999.90;;;12.10;75.90;;;;;;4946619;29;20058;-89
2022/01/31 11:28:45;;;;;;;1999.90;999.90;;;12.00;75.90;;;;;;4944404;29;20473;-88
2022/01/31 11:31:11;;;;;;;1999.90;999.90;;;12.00;76.00;;;;;;4946652;28;20036;-89
2022/01/31 11:33:37;;;;;;;1999.90;999.90;;;12.00;76.00;;;;;;4958591;28;20504;-89
2022/01/31 11:36:03;;;;;;;1999.90;999.90;;;12.00;75.90;;;;;;4953697;28;20050;-89
2022/01/31 11:38:29;;;;;;;1999.90;999.90;;;12.00;75.80;;;;;;4954690;29;20261;-92
2022/01/31 11:41:05;;;;;;;1999.90;999.90;;;12.10;75.80;;;;;;4947523;29;20486;-90
2022/01/31 11:43:31;;;;;;;1999.90;999.90;;;12.20;75.60;;;;;;4968380;28;20046;-90
2022/01/31 11:45:59;;;;;;;1999.90;999.90;;;12.30;75.50;;;;;;4969852;28;20079;-91
2022/01/31 11:48:26;;;;;;;1999.90;999.90;;;12.40;75.30;;;;;;4951567;29;20394;-91
2022/01/31 11:50:54;;;;;;;1999.90;999.90;;;12.40;74.90;;;;;;4955255;29;20059;-90
2022/01/31 11:53:27;;;;;;;1999.90;999.90;;;12.40;74.80;;;;;;4956618;28;20510;-89
2022/01/31 11:55:53;;;;;;;1999.90;999.90;;;12.30;74.90;;;;;;4955692;29;20031;-89
2022/01/31 11:58:19;;;;;;;1999.90;999.90;;;12.30;75.00;;;;;;4955462;29;20414;-89
2022/01/31 12:00:47;;;;;;;1999.90;999.90;;;12.20;75.00;;;;;;4953331;28;20042;-89
2022/01/31 12:03:16;;;;;;;1999.90;999.90;;;12.20;75.00;;;;;;4953289;29;20490;-91
2022/01/31 12:05:43;;;;;;;1999.90;999.90;;;12.20;75.20;;;;;;4937449;29;20043;-90
2022/01/31 12:08:13;;;;;;;1999.90;999.90;;;12.10;75.10;;;;;;4955906;29;20035;-90
2022/01/31 12:10:43;;;;;;;1999.90;999.90;;;12.00;75.10;;;;;;4954917;28;20406;-90
2022/01/31 12:13:33;;;;;;;1999.90;999.90;;;12.00;75.20;;;;;;4964444;28;20043;-91
2022/01/31 12:16:24;;;;;;;1999.90;999.90;;;12.00;75.20;;;;;;4948107;28;20520;-88
2022/01/31 12:24:32;;;;;;;1999.90;999.90;;;11.80;75.10;;;;;;4946975;29;20051;-88
2022/01/31 12:27:05;;;;;;;1999.90;999.90;;;11.80;75.00;;;;;;4952057;28;20521;-90
2022/01/31 12:29:32;;;;;;;1999.90;999.90;;;11.80;74.70;;;;;;4955275;29;20035;-89
2022/01/31 12:32:05;;;;;;;1999.90;999.90;;;11.70;74.50;;;;;;4953125;28;20402;-91
2022/01/31 12:34:33;;;;;;;1999.90;999.90;;;11.70;74.30;;;;;;4957407;28;20406;-90
2022/01/31 12:37:04;;;;;;;1999.90;999.90;;;11.60;74.10;;;;;;4948353;29;20042;-88
2022/01/31 12:39:42;;;;;;;1999.90;999.90;;;11.60;74.00;;;;;;4955151;29;20027;-87
2022/01/31 12:45:17;;;;;;;1999.90;999.90;;;11.70;73.30;;;;;;4944070;28;20043;-89
2022/01/31 12:48:08;;;;;;;1999.90;999.90;;;11.70;72.90;;;;;;4939694;29;20023;-89
2022/01/31 12:50:42;;;;;;;1999.90;999.90;;;11.80;72.70;;;;;;4939326;29;20062;-90
2022/01/31 12:53:23;;;;;;;1999.90;999.90;;;11.90;72.20;;;;;;4953867;29;20035;-88
2022/01/31 12:56:13;;;;;;;;;;;11.90;71.80;;;;;;4955417;29;20031;-90
2022/01/31 12:58:54;;;;;;;1999.90;999.90;;;12.00;71.40;;;;;;4953209;28;19918;-89
2022/01/31 13:01:25;;;;;;;1999.90;999.90;;;12.10;71.10;;;;;;4946497;28;20047;-89
2022/01/31 13:03:55;;;;;;;1999.90;999.90;;;12.10;71.20;;;;;;4945271;29;20035;-90
2022/01/31 13:06:33;;;;;;;1999.90;999.90;;;12.20;71.30;;;;;;4969241;28;20030;-89
2022/01/31 13:09:07;;;;;;;1999.90;999.90;;;12.10;70.80;;;;;;4952260;29;20030;-89
2022/01/31 13:11:34;;;;;;;1999.90;999.90;;;12.00;70.80;;;;;;4954696;29;20019;-89
2022/01/31 13:14:10;;;;;;;1999.90;999.90;;;11.80;70.80;;;;;;4941587;28;20058;-88